createdAt,value
2017-03-11T00:00:26.634Z,6.43
2017-03-11T00:01:26.632Z,6.36
2017-03-11T00:02:26.591Z,6.32
2017-03-11T00:03:26.572Z,6.41
2017-03-11T00:04:26.567Z,6.32
2017-03-11T00:05:26.550Z,6.3
2017-03-11T00:06:26.523Z,6.3
2017-03-11T00:07:26.497Z,6.28
2017-03-11T00:08:26.493Z,6.35
2017-03-11T00:09:26.457Z,6.33
2017-03-11T00:10:26.447Z,6.29
2017-03-11T00:11:26.432Z,6.33
2017-03-11T00:12:26.410Z,6.3
2017-03-11T00:13:26.415Z,6.32
2017-03-11T00:14:26.367Z,6.32
2017-03-11T00:15:26.388Z,6.28
2017-03-11T00:16:26.344Z,6.22
2017-03-11T00:17:26.328Z,6.25
2017-03-11T00:18:26.302Z,6.22
2017-03-11T00:19:26.280Z,6.11
2017-03-11T00:20:26.261Z,6.1
2017-03-11T00:21:26.252Z,6.07
2017-03-11T00:22:25.485Z,6.1
2017-03-11T00:23:26.220Z,5.96
2017-03-11T00:24:26.191Z,6.01
2017-03-11T00:25:26.179Z,6
2017-03-11T00:26:26.155Z,5.92
2017-03-11T00:27:25.743Z,6.01
2017-03-11T00:28:25.722Z,6.01
2017-03-11T00:29:26.101Z,5.93
2017-03-11T00:30:26.085Z,5.86
2017-03-11T00:31:26.062Z,5.86
2017-03-11T00:32:26.059Z,5.83
2017-03-11T00:33:26.041Z,5.74
2017-03-11T00:34:26.007Z,5.83
2017-03-11T00:35:26.007Z,5.7
2017-03-11T00:36:25.582Z,5.75
2017-03-11T00:37:25.955Z,5.67
2017-03-11T00:38:25.947Z,5.75
2017-03-11T00:39:25.940Z,5.75
2017-03-11T00:40:25.906Z,5.81
2017-03-11T00:41:25.879Z,5.81
2017-03-11T00:42:25.860Z,5.82
2017-03-11T00:43:25.464Z,5.88
2017-03-11T00:44:25.825Z,5.85
2017-03-11T00:45:25.810Z,5.82
2017-03-11T00:46:25.792Z,5.88
2017-03-11T00:47:25.773Z,5.77
2017-03-11T00:48:25.358Z,5.95
2017-03-11T00:49:25.346Z,5.96
2017-03-11T00:50:25.713Z,6.06
2017-03-11T00:51:25.725Z,6.01
2017-03-11T00:52:25.685Z,5.91
2017-03-11T00:53:25.677Z,5.92
2017-03-11T00:54:25.658Z,5.91
2017-03-11T00:55:25.637Z,6.03
2017-03-11T00:56:25.607Z,5.95
2017-03-11T00:57:24.807Z,5.95
2017-03-11T00:58:25.568Z,6.03
2017-03-11T00:59:25.548Z,6.04
2017-03-11T01:00:25.531Z,6
2017-03-11T01:01:25.521Z,6.09
2017-03-11T01:02:25.507Z,6.03
2017-03-11T01:03:25.480Z,6.1
2017-03-11T01:04:25.501Z,6.06
2017-03-11T01:05:25.470Z,6.06
2017-03-11T01:06:25.625Z,6.09
2017-03-11T01:07:25.409Z,6.07
2017-03-11T01:08:25.385Z,6.04
2017-03-11T01:09:25.405Z,6.07
2017-03-11T01:10:24.952Z,6.07
2017-03-11T01:11:24.946Z,6.09
2017-03-11T01:12:25.327Z,6.1
2017-03-11T01:13:24.908Z,6.03
2017-03-11T01:14:25.272Z,6.09
2017-03-11T01:15:25.282Z,6.09
2017-03-11T01:16:25.274Z,6.06
2017-03-11T01:17:25.232Z,6.16
2017-03-11T01:18:25.222Z,6.19
2017-03-11T01:19:25.181Z,6.11
2017-03-11T01:20:24.772Z,6.11
2017-03-11T01:21:24.760Z,6.1
2017-03-11T01:22:25.134Z,6.14
2017-03-11T01:23:24.730Z,6.13
2017-03-11T01:24:25.105Z,6.1
2017-03-11T01:25:25.079Z,6.13
2017-03-11T01:26:25.059Z,6.26
2017-03-11T01:27:25.040Z,6.16
2017-03-11T01:28:25.023Z,6.25
2017-03-11T01:29:25.002Z,6.16
2017-03-11T01:30:24.998Z,6.25
2017-03-11T01:31:24.970Z,6.09
2017-03-11T01:32:24.961Z,6.16
2017-03-11T01:33:24.933Z,6.14
2017-03-11T01:34:24.521Z,6.11
2017-03-11T01:35:24.897Z,6.22
2017-03-11T01:36:24.881Z,6.19
2017-03-11T01:37:24.478Z,6.16
2017-03-11T01:38:24.866Z,6.21
2017-03-11T01:39:24.870Z,6.22
2017-03-11T01:40:24.409Z,6.22
2017-03-11T01:41:24.790Z,6.21
2017-03-11T01:42:24.393Z,6.26
2017-03-11T01:43:24.777Z,6.25
2017-03-11T01:44:24.738Z,6.22
2017-03-11T01:45:24.328Z,6.26
2017-03-11T01:46:24.299Z,6.19
2017-03-11T01:47:24.283Z,6.22
2017-03-11T01:48:24.657Z,6.22
2017-03-11T01:49:24.257Z,6.26
2017-03-11T01:50:24.642Z,6.26
2017-03-11T01:51:24.608Z,6.22
2017-03-11T01:52:24.603Z,6.25
2017-03-11T01:53:24.168Z,6.21
2017-03-11T01:54:24.613Z,6.18
2017-03-11T01:55:24.533Z,6.21
2017-03-11T01:56:24.522Z,6.22
2017-03-11T01:57:24.493Z,6.25
2017-03-11T01:58:24.079Z,6.21
2017-03-11T01:59:24.457Z,6.21
2017-03-11T02:00:24.052Z,6.19
2017-03-11T02:01:24.437Z,6.22
2017-03-11T02:02:24.019Z,6.19
2017-03-11T02:03:23.993Z,6.19
2017-03-11T02:04:23.982Z,6.25
2017-03-11T02:05:24.365Z,6.21
2017-03-11T02:06:23.942Z,6.1
2017-03-11T02:07:24.360Z,6.18
2017-03-11T02:08:23.921Z,6.14
2017-03-11T02:09:24.278Z,6.22
2017-03-11T02:10:24.298Z,6.11
2017-03-11T02:11:24.239Z,6.11
2017-03-11T02:12:24.223Z,6.14
2017-03-11T02:13:23.828Z,6.09
2017-03-11T02:14:24.191Z,6.18
2017-03-11T02:15:24.182Z,6.18
2017-03-11T02:16:24.153Z,6.16
2017-03-11T02:17:24.143Z,6.16
2017-03-11T02:18:24.125Z,6.09
2017-03-11T02:19:24.100Z,6.14
2017-03-11T02:20:24.091Z,6.11
2017-03-11T02:21:23.663Z,6.14
2017-03-11T02:22:24.054Z,6.21
2017-03-11T02:23:24.027Z,6.11
2017-03-11T02:24:24.065Z,6.1
2017-03-11T02:25:23.999Z,6.09
2017-03-11T02:26:23.980Z,6.09
2017-03-11T02:27:23.955Z,6.1
2017-03-11T02:28:23.951Z,6.1
2017-03-11T02:29:23.923Z,6.11
2017-03-11T02:30:23.927Z,6.07
2017-03-11T02:31:23.929Z,6.07
2017-03-11T02:32:23.874Z,5.98
2017-03-11T02:33:23.895Z,5.98
2017-03-11T02:34:23.870Z,5.96
2017-03-11T02:35:23.416Z,5.98
2017-03-11T02:36:23.816Z,5.95
2017-03-11T02:37:23.767Z,6.07
2017-03-11T02:38:23.752Z,5.91
2017-03-11T02:39:23.337Z,5.95
2017-03-11T02:40:23.719Z,5.89
2017-03-11T02:41:23.701Z,6.01
2017-03-11T02:42:23.673Z,5.86
2017-03-11T02:43:23.280Z,6
2017-03-11T02:44:23.639Z,5.93
2017-03-11T02:45:23.662Z,5.93
2017-03-11T02:46:23.608Z,5.91
2017-03-11T02:47:23.194Z,5.93
2017-03-11T02:48:23.196Z,5.86
2017-03-11T02:49:23.153Z,5.96
2017-03-11T02:50:23.543Z,5.93
2017-03-11T02:51:23.503Z,6.01
2017-03-11T02:52:23.506Z,5.96
2017-03-11T02:53:23.512Z,5.98
2017-03-11T02:54:23.457Z,5.93
2017-03-11T02:55:23.443Z,5.92
2017-03-11T02:56:23.438Z,5.98
2017-03-11T02:57:23.417Z,5.98
2017-03-11T02:58:22.982Z,5.98
2017-03-11T02:59:23.380Z,5.96
2017-03-11T03:00:22.972Z,5.98
2017-03-11T03:01:23.364Z,5.95
2017-03-11T03:02:23.320Z,5.85
2017-03-11T03:03:23.287Z,6
2017-03-11T03:04:23.278Z,5.96
2017-03-11T03:05:23.267Z,5.88
2017-03-11T03:06:23.443Z,5.98
2017-03-11T03:07:23.220Z,5.93
2017-03-11T03:08:23.198Z,5.91
2017-03-11T03:09:22.789Z,5.88
2017-03-11T03:10:23.161Z,5.93
2017-03-11T03:11:23.136Z,5.92
2017-03-11T03:12:23.131Z,5.93
2017-03-11T03:13:22.734Z,5.91
2017-03-11T03:14:23.124Z,5.92
2017-03-11T03:15:22.670Z,5.98
2017-03-11T03:16:23.070Z,6.04
2017-03-11T03:17:22.637Z,6.01
2017-03-11T03:18:23.027Z,5.98
2017-03-11T03:19:22.997Z,5.98
2017-03-11T03:20:22.981Z,5.93
2017-03-11T03:21:22.960Z,5.92
2017-03-11T03:22:22.540Z,5.98
2017-03-11T03:23:22.959Z,5.95
2017-03-11T03:24:22.906Z,6.04
2017-03-11T03:25:22.889Z,5.98
2017-03-11T03:26:22.871Z,6.06
2017-03-11T03:27:22.871Z,5.88
2017-03-11T03:28:22.830Z,5.93
2017-03-11T03:29:22.430Z,5.93
2017-03-11T03:30:22.793Z,6
2017-03-11T03:31:22.787Z,5.93
2017-03-11T03:32:22.761Z,6
2017-03-11T03:33:22.752Z,6.04
2017-03-11T03:34:22.729Z,6.03
2017-03-11T03:35:22.320Z,5.98
2017-03-11T03:36:22.683Z,5.98
2017-03-11T03:37:22.663Z,6.04
2017-03-11T03:38:22.681Z,5.96
2017-03-11T03:39:22.626Z,6.06
2017-03-11T03:40:22.609Z,5.96
2017-03-11T03:41:22.222Z,5.96
2017-03-11T03:42:22.585Z,6
2017-03-11T03:43:22.556Z,6.01
2017-03-11T03:44:22.136Z,6
2017-03-11T03:45:22.521Z,6.01
2017-03-11T03:46:22.502Z,6.09
2017-03-11T03:47:22.519Z,6.01
2017-03-11T03:48:22.071Z,6.07
2017-03-11T03:49:21.660Z,6.07
2017-03-11T03:50:22.426Z,6.09
2017-03-11T03:51:22.408Z,6.1
2017-03-11T03:52:22.387Z,6.06
2017-03-11T03:53:22.382Z,6.01
2017-03-11T03:54:22.428Z,6.07
2017-03-11T03:55:22.343Z,6.04
2017-03-11T03:56:22.335Z,6.13
2017-03-11T03:57:21.907Z,6.1
2017-03-11T03:58:22.277Z,6.04
2017-03-11T03:59:22.277Z,6.06
2017-03-11T04:00:21.849Z,5.96
2017-03-11T04:01:22.239Z,6.01
2017-03-11T04:02:22.210Z,5.96
2017-03-11T04:03:22.195Z,6.07
2017-03-11T04:04:21.787Z,5.98
2017-03-11T04:05:22.156Z,6.1
2017-03-11T04:06:22.137Z,6.06
2017-03-11T04:07:22.139Z,6.07
2017-03-11T04:08:22.095Z,6.11
2017-03-11T04:09:21.694Z,6.09
2017-03-11T04:10:22.063Z,6.07
2017-03-11T04:11:21.649Z,6.09
2017-03-11T04:12:22.026Z,6.04
2017-03-11T04:13:22.007Z,6.1
2017-03-11T04:14:22.001Z,6
2017-03-11T04:15:21.576Z,6.03
2017-03-11T04:16:21.967Z,5.96
2017-03-11T04:17:21.943Z,6.01
2017-03-11T04:18:21.925Z,6.07
2017-03-11T04:19:21.932Z,5.96
2017-03-11T04:20:21.880Z,6.04
2017-03-11T04:21:21.864Z,6.04
2017-03-11T04:22:21.876Z,6
2017-03-11T04:23:21.833Z,6.06
2017-03-11T04:24:21.820Z,5.88
2017-03-11T04:25:21.790Z,5.98
2017-03-11T04:26:21.776Z,5.88
2017-03-11T04:27:21.762Z,5.89
2017-03-11T04:28:21.343Z,6.03
2017-03-11T04:29:21.725Z,5.89
2017-03-11T04:30:20.934Z,6.03
2017-03-11T04:31:21.682Z,5.86
2017-03-11T04:32:21.685Z,5.95
2017-03-11T04:33:21.656Z,5.88
2017-03-11T04:34:21.621Z,5.88
2017-03-11T04:35:21.227Z,6.06
2017-03-11T04:36:21.593Z,5.92
2017-03-11T04:37:21.581Z,5.98
2017-03-11T04:38:21.764Z,5.86
2017-03-11T04:39:21.529Z,5.91
2017-03-11T04:40:21.129Z,5.93
2017-03-11T04:41:21.501Z,6.06
2017-03-11T04:42:21.483Z,5.95
2017-03-11T04:43:21.473Z,5.89
2017-03-11T04:44:21.441Z,5.98
2017-03-11T04:45:21.031Z,5.95
2017-03-11T04:46:21.006Z,5.95
2017-03-11T04:47:21.393Z,5.95
2017-03-11T04:48:21.378Z,5.92
2017-03-11T04:49:21.360Z,5.92
2017-03-11T04:50:21.345Z,5.88
2017-03-11T04:51:21.316Z,5.86
2017-03-11T04:52:21.294Z,5.91
2017-03-11T04:53:21.279Z,5.85
2017-03-11T04:54:21.258Z,5.92
2017-03-11T04:55:20.864Z,5.86
2017-03-11T04:56:21.242Z,5.88
2017-03-11T04:57:21.222Z,5.74
2017-03-11T04:58:21.187Z,5.89
2017-03-11T04:59:21.177Z,5.82
2017-03-11T05:00:21.157Z,5.78
2017-03-11T05:01:21.143Z,5.88
2017-03-11T05:02:21.172Z,5.86
2017-03-11T05:03:21.091Z,5.83
2017-03-11T05:04:20.687Z,5.86
2017-03-11T05:05:21.056Z,5.85
2017-03-11T05:06:21.260Z,5.74
2017-03-11T05:07:21.033Z,5.81
2017-03-11T05:08:21.011Z,5.71
2017-03-11T05:09:20.978Z,5.78
2017-03-11T05:10:20.570Z,5.78
2017-03-11T05:11:20.961Z,5.78
2017-03-11T05:12:20.947Z,5.77
2017-03-11T05:13:20.547Z,5.78
2017-03-11T05:14:20.526Z,5.73
2017-03-11T05:15:20.876Z,5.78
2017-03-11T05:16:20.903Z,5.82
2017-03-11T05:17:20.842Z,5.75
2017-03-11T05:18:20.817Z,5.75
2017-03-11T05:19:20.804Z,5.74
2017-03-11T05:20:20.387Z,5.74
2017-03-11T05:21:20.764Z,5.66
2017-03-11T05:22:20.740Z,5.6
2017-03-11T05:23:20.723Z,5.71
2017-03-11T05:24:20.717Z,5.66
2017-03-11T05:25:20.684Z,5.66
2017-03-11T05:26:20.685Z,5.63
2017-03-11T05:27:20.698Z,5.49
2017-03-11T05:28:20.231Z,5.55
2017-03-11T05:29:20.614Z,5.52
2017-03-11T05:30:20.599Z,5.52
2017-03-11T05:31:20.623Z,5.46
2017-03-11T05:32:20.559Z,5.46
2017-03-11T05:33:20.556Z,5.46
2017-03-11T05:34:20.523Z,5.49
2017-03-11T05:35:20.518Z,5.48
2017-03-11T05:36:20.481Z,5.46
2017-03-11T05:37:20.477Z,5.48
2017-03-11T05:38:20.454Z,5.25
2017-03-11T05:39:20.424Z,5.27
2017-03-11T05:40:20.409Z,5.31
2017-03-11T05:41:20.393Z,5.32
2017-03-11T05:42:20.370Z,5.3
2017-03-11T05:43:20.351Z,5.37
2017-03-11T05:44:20.331Z,5.25
2017-03-11T05:45:20.347Z,5.13
2017-03-11T05:46:20.292Z,5.12
2017-03-11T05:47:20.275Z,5.16
2017-03-11T05:48:20.260Z,5.17
2017-03-11T05:49:20.248Z,5.17
2017-03-11T05:50:20.227Z,5.16
2017-03-11T05:51:19.818Z,5.2
2017-03-11T05:52:19.791Z,5.17
2017-03-11T05:53:19.775Z,5.17
2017-03-11T05:54:19.758Z,5.1
2017-03-11T05:55:20.125Z,5.16
2017-03-11T05:56:20.154Z,5.1
2017-03-11T05:57:20.125Z,5.14
2017-03-11T05:58:20.064Z,5.1
2017-03-11T05:59:20.063Z,5.09
2017-03-11T06:00:19.643Z,5.07
2017-03-11T06:01:20.024Z,5.05
2017-03-11T06:02:20.003Z,5.05
2017-03-11T06:03:19.591Z,4.98
2017-03-11T06:04:19.957Z,4.88
2017-03-11T06:05:19.937Z,4.94
2017-03-11T06:06:19.919Z,4.76
2017-03-11T06:07:19.908Z,4.75
2017-03-11T06:08:19.893Z,4.77
2017-03-11T06:09:19.923Z,4.64
2017-03-11T06:10:19.459Z,4.72
2017-03-11T06:11:19.824Z,4.67
2017-03-11T06:12:19.801Z,4.61
2017-03-11T06:13:19.795Z,4.67
2017-03-11T06:14:19.781Z,4.64
2017-03-11T06:15:19.753Z,4.62
2017-03-11T06:16:19.731Z,4.61
2017-03-11T06:17:19.717Z,4.57
2017-03-11T06:18:19.298Z,4.57
2017-03-11T06:19:19.665Z,4.55
2017-03-11T06:20:19.667Z,4.51
2017-03-11T06:21:19.629Z,4.5
2017-03-11T06:22:19.604Z,4.47
2017-03-11T06:23:19.634Z,4.44
2017-03-11T06:24:19.570Z,4.47
2017-03-11T06:25:19.547Z,4.42
2017-03-11T06:26:19.532Z,4.46
2017-03-11T06:27:19.522Z,4.47
2017-03-11T06:28:19.491Z,4.5
2017-03-11T06:29:19.472Z,4.46
2017-03-11T06:30:19.057Z,4.47
2017-03-11T06:31:19.447Z,4.4
2017-03-11T06:32:19.027Z,4.43
2017-03-11T06:33:19.444Z,4.43
2017-03-11T06:34:19.000Z,4.4
2017-03-11T06:35:18.584Z,4.42
2017-03-11T06:36:18.952Z,4.4
2017-03-11T06:37:19.335Z,4.44
2017-03-11T06:38:19.302Z,4.42
2017-03-11T06:39:19.301Z,4.46
2017-03-11T06:40:19.261Z,4.42
2017-03-11T06:41:19.258Z,4.43
2017-03-11T06:42:19.231Z,4.36
2017-03-11T06:43:19.202Z,4.39
2017-03-11T06:44:19.185Z,4.36
2017-03-11T06:45:19.165Z,4.4
2017-03-11T06:46:19.208Z,4.43
2017-03-11T06:47:19.128Z,4.43
2017-03-11T06:48:19.167Z,4.43
2017-03-11T06:49:19.116Z,4.46
2017-03-11T06:50:19.066Z,4.52
2017-03-11T06:51:19.056Z,4.55
2017-03-11T06:52:18.628Z,4.57
2017-03-11T06:53:19.021Z,4.58
2017-03-11T06:54:18.997Z,4.62
2017-03-11T06:55:18.971Z,4.64
2017-03-11T06:56:18.950Z,4.62
2017-03-11T06:57:18.969Z,4.69
2017-03-11T06:58:18.916Z,4.62
2017-03-11T06:59:18.900Z,4.64
2017-03-11T07:00:18.876Z,4.69
2017-03-11T07:01:18.464Z,4.65
2017-03-11T07:02:18.839Z,4.59
2017-03-11T07:03:18.827Z,4.75
2017-03-11T07:04:18.811Z,4.77
2017-03-11T07:05:17.985Z,4.72
2017-03-11T07:06:18.565Z,4.72
2017-03-11T07:07:18.746Z,4.86
2017-03-11T07:08:18.730Z,4.79
2017-03-11T07:09:18.714Z,4.88
2017-03-11T07:10:18.685Z,4.88
2017-03-11T07:11:18.715Z,4.94
2017-03-11T07:12:18.653Z,4.91
2017-03-11T07:13:18.631Z,4.95
2017-03-11T07:14:18.605Z,4.99
2017-03-11T07:15:18.586Z,5.1
2017-03-11T07:16:18.572Z,5.12
2017-03-11T07:17:18.549Z,5.13
2017-03-11T07:18:18.533Z,5.17
2017-03-11T07:19:18.514Z,5.13
2017-03-11T07:20:18.495Z,5.25
2017-03-11T07:21:18.471Z,5.28
2017-03-11T07:22:18.462Z,5.43
2017-03-11T07:23:18.442Z,5.5
2017-03-11T07:24:18.419Z,5.48
2017-03-11T07:25:18.411Z,5.38
2017-03-11T07:26:18.380Z,5.59
2017-03-11T07:27:18.377Z,5.59
2017-03-11T07:28:18.360Z,5.53
2017-03-11T07:29:18.332Z,5.63
2017-03-11T07:30:18.317Z,5.73
2017-03-11T07:31:18.296Z,5.73
2017-03-11T07:32:18.280Z,5.81
2017-03-11T07:33:18.277Z,5.91
2017-03-11T07:34:18.228Z,5.96
2017-03-11T07:35:18.210Z,5.89
2017-03-11T07:36:18.196Z,6.1
2017-03-11T07:37:18.170Z,6.11
2017-03-11T07:38:18.168Z,6.19
2017-03-11T07:39:18.151Z,6.25
2017-03-11T07:40:18.129Z,6.33
2017-03-11T07:41:18.100Z,6.28
2017-03-11T07:42:18.090Z,6.36
2017-03-11T07:43:18.059Z,6.5
2017-03-11T07:44:18.048Z,6.59
2017-03-11T07:45:18.239Z,6.62
2017-03-11T07:46:18.012Z,6.68
2017-03-11T07:47:18.023Z,6.73
2017-03-11T07:48:17.622Z,6.81
2017-03-11T07:49:17.614Z,6.87
2017-03-11T07:50:17.937Z,6.98
2017-03-11T07:51:17.919Z,6.97
2017-03-11T07:52:17.898Z,6.98
2017-03-11T07:53:17.895Z,6.98
2017-03-11T07:54:17.513Z,7.09
2017-03-11T07:55:17.887Z,7.19
2017-03-11T07:56:17.839Z,7.19
2017-03-11T07:57:17.835Z,7.24
2017-03-11T07:58:17.802Z,7.35
2017-03-11T07:59:17.380Z,7.37
2017-03-11T08:00:17.758Z,7.44
2017-03-11T08:01:17.755Z,7.45
2017-03-11T08:02:17.737Z,7.55
2017-03-11T08:03:17.327Z,7.71
2017-03-11T08:04:17.682Z,7.78
2017-03-11T08:05:17.668Z,7.69
2017-03-11T08:06:17.655Z,7.85
2017-03-11T08:07:17.642Z,7.81
2017-03-11T08:08:17.630Z,8.02
2017-03-11T08:09:17.624Z,8.12
2017-03-11T08:10:17.597Z,8.18
2017-03-11T08:11:17.573Z,8.33
2017-03-11T08:12:17.146Z,8.29
2017-03-11T08:13:17.526Z,8.42
2017-03-11T08:14:17.512Z,8.62
2017-03-11T08:15:17.500Z,8.69
2017-03-11T08:16:17.478Z,8.69
2017-03-11T08:17:17.482Z,8.71
2017-03-11T08:18:17.466Z,8.9
2017-03-11T08:19:17.448Z,8.88
2017-03-11T08:20:17.428Z,8.93
2017-03-11T08:21:17.411Z,8.97
2017-03-11T08:22:17.378Z,9.18
2017-03-11T08:23:17.387Z,9.15
2017-03-11T08:24:17.395Z,9.12
2017-03-11T08:25:17.386Z,9.4
2017-03-11T08:26:17.318Z,10.06
2017-03-11T08:27:16.953Z,10.99
2017-03-11T08:28:17.285Z,11.9
2017-03-11T08:29:17.271Z,12.7
2017-03-11T08:30:16.867Z,13.21
2017-03-11T08:31:17.245Z,13.88
2017-03-11T08:32:17.244Z,14.47
2017-03-11T08:33:17.218Z,14.86
2017-03-11T08:34:17.251Z,14.86
2017-03-11T08:35:17.207Z,14.93
2017-03-11T08:36:17.180Z,15.08
2017-03-11T08:37:17.213Z,15.03
2017-03-11T08:38:17.159Z,15.24
2017-03-11T08:39:17.173Z,14.9
2017-03-11T08:40:17.149Z,14.71
2017-03-11T08:41:17.139Z,14.71
2017-03-11T08:42:17.123Z,14.74
2017-03-11T08:43:16.717Z,14.9
2017-03-11T08:44:16.702Z,14.94
2017-03-11T08:45:16.698Z,14.91
2017-03-11T08:46:17.093Z,14.84
2017-03-11T08:47:17.077Z,14.94
2017-03-11T08:48:17.087Z,15.03
2017-03-11T08:49:17.080Z,15.26
2017-03-11T08:50:17.056Z,15.3
2017-03-11T08:51:17.079Z,15.59
2017-03-11T08:52:16.642Z,15.85
2017-03-11T08:53:17.049Z,16.12
2017-03-11T08:54:17.020Z,16.73
2017-03-11T08:55:17.031Z,16.95
2017-03-11T08:56:17.007Z,16.9
2017-03-11T08:57:17.003Z,16.74
2017-03-11T08:58:16.992Z,16.22
2017-03-11T08:59:16.997Z,16.23
2017-03-11T09:00:16.987Z,16.41
2017-03-11T09:01:16.973Z,16.31
2017-03-11T09:02:16.979Z,16.11
2017-03-11T09:03:16.972Z,16.2
2017-03-11T09:04:16.952Z,16.26
2017-03-11T09:05:16.554Z,16.04
2017-03-11T09:06:17.135Z,15.79
2017-03-11T09:07:16.934Z,15.84
2017-03-11T09:08:16.925Z,15.24
2017-03-11T09:09:16.919Z,15.06
2017-03-11T09:10:16.923Z,15.11
2017-03-11T09:11:16.911Z,14.81
2017-03-11T09:12:16.897Z,14.78
2017-03-11T09:13:16.900Z,14.68
2017-03-11T09:14:16.490Z,14.75
2017-03-11T09:15:16.493Z,15.03
2017-03-11T09:16:16.879Z,15.57
2017-03-11T09:17:16.466Z,15.79
2017-03-11T09:18:16.862Z,15.74
2017-03-11T09:19:16.844Z,15.67
2017-03-11T09:20:16.853Z,15.64
2017-03-11T09:21:16.838Z,15.64
2017-03-11T09:22:16.833Z,15.68
2017-03-11T09:23:16.835Z,15.63
2017-03-11T09:24:16.422Z,15.82
2017-03-11T09:25:16.815Z,15.99
2017-03-11T09:26:16.831Z,15.99
2017-03-11T09:27:16.789Z,16.06
2017-03-11T09:28:16.794Z,15.88
2017-03-11T09:29:16.773Z,15.81
2017-03-11T09:30:16.775Z,15.76
2017-03-11T09:31:16.785Z,15.56
2017-03-11T09:32:16.754Z,15.72
2017-03-11T09:33:16.768Z,15.81
2017-03-11T09:34:16.749Z,15.88
2017-03-11T09:35:16.734Z,16
2017-03-11T09:36:16.731Z,16.06
2017-03-11T09:37:16.762Z,15.84
2017-03-11T09:38:16.727Z,15.84
2017-03-11T09:39:16.713Z,15.97
2017-03-11T09:40:16.697Z,16.14
2017-03-11T09:41:16.696Z,16.31
2017-03-11T09:42:16.693Z,16.27
2017-03-11T09:43:16.687Z,15.93
2017-03-11T09:44:16.685Z,15.79
2017-03-11T09:45:16.847Z,15.7
2017-03-11T09:46:16.786Z,15.49
2017-03-11T09:47:16.677Z,15.43
2017-03-11T09:48:16.293Z,15.6
2017-03-11T09:49:16.250Z,15.63
2017-03-11T09:50:16.654Z,15.6
2017-03-11T09:51:16.636Z,15.45
2017-03-11T09:52:16.642Z,15.54
2017-03-11T09:53:16.629Z,15.84
2017-03-11T09:54:16.648Z,15.92
2017-03-11T09:55:16.607Z,15.99
2017-03-11T09:56:16.613Z,16.09
2017-03-11T09:57:16.206Z,16.31
2017-03-11T09:58:16.591Z,16.33
2017-03-11T09:59:16.586Z,16.37
2017-03-11T10:00:16.580Z,16.11
2017-03-11T10:01:16.585Z,15.97
2017-03-11T10:02:16.578Z,15.94
2017-03-11T10:03:16.180Z,15.86
2017-03-11T10:04:16.601Z,15.63
2017-03-11T10:05:16.565Z,15.92
2017-03-11T10:06:16.545Z,16.35
2017-03-11T10:07:16.537Z,16.85
2017-03-11T10:08:16.531Z,17.11
2017-03-11T10:09:16.524Z,17.1
2017-03-11T10:10:16.539Z,17.07
2017-03-11T10:11:16.517Z,17.11
2017-03-11T10:12:16.528Z,17.28
2017-03-11T10:13:16.550Z,17.23
2017-03-11T10:14:16.513Z,17.08
2017-03-11T10:15:16.503Z,17.04
2017-03-11T10:16:16.483Z,17.06
2017-03-11T10:17:16.483Z,16.99
2017-03-11T10:18:16.085Z,16.68
2017-03-11T10:19:16.466Z,16.74
2017-03-11T10:20:16.061Z,16.62
2017-03-11T10:21:16.472Z,16.68
2017-03-11T10:22:16.464Z,16.65
2017-03-11T10:23:16.452Z,16.96
2017-03-11T10:24:16.460Z,17.3
2017-03-11T10:25:16.040Z,17.57
2017-03-11T10:26:16.430Z,17.82
2017-03-11T10:27:16.032Z,17.81
2017-03-11T10:28:16.433Z,17.76
2017-03-11T10:29:16.413Z,17.64
2017-03-11T10:30:16.401Z,17.41
2017-03-11T10:31:16.009Z,17.3
2017-03-11T10:32:16.404Z,17.25
2017-03-11T10:33:16.387Z,17.38
2017-03-11T10:34:16.382Z,17.5
2017-03-11T10:35:16.399Z,17.55
2017-03-11T10:36:15.985Z,17.43
2017-03-11T10:37:16.384Z,17.04
2017-03-11T10:38:16.375Z,16.98
2017-03-11T10:39:15.966Z,17.06
2017-03-11T10:40:16.362Z,17.15
2017-03-11T10:41:16.359Z,17.36
2017-03-11T10:42:16.346Z,17.48
2017-03-11T10:43:16.012Z,17.64
2017-03-11T10:44:16.333Z,17.74
2017-03-11T10:45:16.338Z,17.87
2017-03-11T10:46:16.330Z,17.95
2017-03-11T10:47:16.322Z,18.1
2017-03-11T10:48:15.931Z,18.15
2017-03-11T10:49:15.917Z,18.25
2017-03-11T10:50:15.927Z,18.17
2017-03-11T10:51:16.309Z,18.18
2017-03-11T10:52:15.932Z,18.34
2017-03-11T10:53:15.894Z,18.58
2017-03-11T10:54:16.290Z,18.67
2017-03-11T10:55:16.282Z,18.79
2017-03-11T10:56:15.887Z,18.84
2017-03-11T10:57:15.877Z,18.98
2017-03-11T10:58:16.300Z,19.1
2017-03-11T10:59:15.894Z,18.8
2017-03-11T11:00:15.901Z,18.9
2017-03-11T11:01:16.269Z,19.23
2017-03-11T11:02:16.252Z,19.6
2017-03-11T11:03:16.257Z,19.75
2017-03-11T11:04:16.244Z,19.4
2017-03-11T11:05:16.248Z,19.25
2017-03-11T11:06:16.257Z,19.31
2017-03-11T11:07:15.862Z,18.9
2017-03-11T11:08:16.260Z,18.79
2017-03-11T11:09:16.242Z,18.82
2017-03-11T11:10:16.265Z,18.58
2017-03-11T11:11:15.844Z,18.5
2017-03-11T11:12:16.240Z,18.46
2017-03-11T11:13:16.220Z,18.5
2017-03-11T11:14:16.223Z,18.67
2017-03-11T11:15:16.223Z,18.8
2017-03-11T11:16:16.217Z,18.77
2017-03-11T11:17:15.830Z,18.65
2017-03-11T11:18:16.219Z,18.57
2017-03-11T11:19:16.219Z,18.52
2017-03-11T11:20:15.799Z,18.34
2017-03-11T11:21:16.212Z,17.66
2017-03-11T11:22:16.216Z,16.92
2017-03-11T11:23:15.806Z,16.92
2017-03-11T11:24:15.794Z,17.07
2017-03-11T11:25:16.235Z,17.22
2017-03-11T11:26:16.194Z,17.48
2017-03-11T11:27:16.192Z,17.69
2017-03-11T11:28:16.189Z,17.97
2017-03-11T11:29:16.180Z,18.25
2017-03-11T11:30:16.169Z,18.33
2017-03-11T11:31:16.186Z,18.39
2017-03-11T11:32:16.173Z,18.57
2017-03-11T11:33:16.162Z,18.68
2017-03-11T11:34:16.156Z,18.73
2017-03-11T11:35:16.169Z,18.82
2017-03-11T11:36:16.155Z,18.79
2017-03-11T11:37:16.152Z,18.68
2017-03-11T11:38:16.151Z,18.34
2017-03-11T11:39:16.155Z,17.95
2017-03-11T11:40:16.401Z,17.85
2017-03-11T11:41:16.158Z,17.7
2017-03-11T11:42:16.153Z,17.5
2017-03-11T11:43:15.752Z,17.54
2017-03-11T11:44:16.143Z,17.07
2017-03-11T11:45:16.126Z,16.88
2017-03-11T11:46:16.123Z,16.83
2017-03-11T11:47:16.118Z,16.92
2017-03-11T11:48:15.748Z,17.08
2017-03-11T11:49:16.117Z,17.38
2017-03-11T11:50:16.122Z,17.44
2017-03-11T11:51:16.113Z,17.63
2017-03-11T11:52:16.109Z,17.76
2017-03-11T11:53:16.113Z,17.85
2017-03-11T11:54:16.090Z,17.91
2017-03-11T11:55:16.095Z,18.04
2017-03-11T11:56:16.105Z,17.4
2017-03-11T11:57:16.098Z,17.18
2017-03-11T11:58:16.082Z,16.92
2017-03-11T11:59:16.083Z,16.99
2017-03-11T12:00:15.685Z,17.17
2017-03-11T12:01:16.092Z,17.18
2017-03-11T12:02:15.675Z,17.28
2017-03-11T12:03:16.102Z,17.32
2017-03-11T12:04:16.063Z,17.13
2017-03-11T12:05:16.068Z,17.33
2017-03-11T12:06:16.065Z,17.5
2017-03-11T12:07:16.066Z,17.67
2017-03-11T12:08:16.048Z,17.84
2017-03-11T12:09:16.058Z,18.24
2017-03-11T12:10:16.044Z,18.42
2017-03-11T12:11:16.040Z,18.57
2017-03-11T12:12:16.039Z,18.67
2017-03-11T12:13:16.048Z,18.95
2017-03-11T12:14:16.036Z,18.77
2017-03-11T12:15:16.037Z,18.86
2017-03-11T12:16:16.037Z,19.21
2017-03-11T12:17:16.022Z,19.38
2017-03-11T12:18:16.043Z,19.42
2017-03-11T12:19:16.027Z,19.55
2017-03-11T12:20:16.022Z,19.5
2017-03-11T12:21:16.004Z,19.54
2017-03-11T12:22:16.004Z,19.42
2017-03-11T12:23:16.002Z,19.25
2017-03-11T12:24:15.995Z,19.15
2017-03-11T12:25:16.048Z,19.21
2017-03-11T12:26:16.011Z,19.4
2017-03-11T12:27:16.017Z,19.63
2017-03-11T12:28:15.599Z,19.78
2017-03-11T12:29:15.619Z,19.8
2017-03-11T12:30:16.002Z,19.91
2017-03-11T12:31:15.987Z,20
2017-03-11T12:32:15.995Z,20.09
2017-03-11T12:33:15.993Z,20.41
2017-03-11T12:34:15.587Z,20.62
2017-03-11T12:35:15.990Z,20.46
2017-03-11T12:36:15.977Z,20.47
2017-03-11T12:37:15.985Z,20.62
2017-03-11T12:38:15.977Z,20.66
2017-03-11T12:39:15.986Z,20.56
2017-03-11T12:40:15.973Z,20.47
2017-03-11T12:41:15.987Z,20.5
2017-03-11T12:42:15.986Z,20.2
2017-03-11T12:43:15.973Z,19.87
2017-03-11T12:44:15.978Z,19.7
2017-03-11T12:45:15.984Z,18.82
2017-03-11T12:46:15.975Z,18.98
2017-03-11T12:47:15.967Z,19.28
2017-03-11T12:48:15.970Z,19.69
2017-03-11T12:49:15.980Z,20.09
2017-03-11T12:50:15.987Z,20.38
2017-03-11T12:51:15.985Z,20.71
2017-03-11T12:52:15.573Z,20.84
2017-03-11T12:53:15.978Z,21.11
2017-03-11T12:54:15.964Z,21.35
2017-03-11T12:55:15.966Z,21.57
2017-03-11T12:56:15.968Z,21.79
2017-03-11T12:57:15.979Z,22.04
2017-03-11T12:58:15.970Z,22.02
2017-03-11T12:59:15.967Z,21.98
2017-03-11T13:00:16.020Z,22.01
2017-03-11T13:01:15.982Z,21.99
2017-03-11T13:02:15.972Z,21.75
2017-03-11T13:03:15.964Z,21.53
2017-03-11T13:04:15.986Z,21.53
2017-03-11T13:05:15.970Z,21.29
2017-03-11T13:06:15.976Z,21.24
2017-03-11T13:07:16.184Z,21.11
2017-03-11T13:08:15.968Z,21.11
2017-03-11T13:09:15.970Z,21.01
2017-03-11T13:10:15.964Z,20.83
2017-03-11T13:11:15.975Z,20.8
2017-03-11T13:12:15.976Z,20.65